Time;durP1;ratioP1;P1;durP2;ratioP2;P2;SDS_P1;SDS_P2;PMS_P1;PMS_P2;Temp;Humidity;BMP_temperature;BMP_pressure;BME280_temperature;BME280_humidity;BME280_pressure;Samples;Min_cycle;Max_cycle;Signal;HPM_P1;HPM_P2
2024/01/03 00:01:24;;;;;;;4.15;1.00;;;9.90;99.90;;;;;;4980626;28;20203;-70
2024/01/03 00:03:54;;;;;;;2.15;1.00;;;9.90;99.90;;;;;;4979880;28;20314;-70
2024/01/03 00:06:23;;;;;;;5.40;1.10;;;9.90;99.90;;;;;;4947222;28;20210;-69
2024/01/03 00:08:50;;;;;;;6.15;1.33;;;10.00;99.90;;;;;;4979751;28;20210;-70
2024/01/03 00:11:20;;;;;;;4.85;0.98;;;9.90;99.90;;;;;;4972073;28;20205;-70
2024/01/03 00:14:25;;;;;;;4.93;1.23;;;9.90;99.90;;;;;;4970266;28;20222;-70
2024/01/03 00:16:52;;;;;;;4.75;0.93;;;9.80;99.90;;;;;;4975528;28;20206;-70
2024/01/03 00:19:22;;;;;;;8.13;1.05;;;9.90;99.90;;;;;;4977512;28;20303;-70
2024/01/03 00:21:50;;;;;;;3.40;1.00;;;9.80;99.90;;;;;;4945129;28;20357;-69
2024/01/03 00:24:19;;;;;;;4.75;1.00;;;9.80;99.90;;;;;;4974678;28;20209;-70
2024/01/03 00:26:47;;;;;;;2.95;1.00;;;9.80;99.90;;;;;;4968019;28;20209;-70
2024/01/03 00:30:02;;;;;;;5.43;1.10;;;9.80;99.90;;;;;;4971468;28;20205;-70
2024/01/03 00:32:29;;;;;;;4.40;1.10;;;9.90;99.90;;;;;;4974071;28;20257;-70
2024/01/03 00:34:59;;;;;;;2.38;0.95;;;9.80;99.90;;;;;;4975454;28;20239;-70
2024/01/03 00:37:28;;;;;;;2.28;1.42;;;9.70;99.90;;;;;;4940749;28;20357;-70
2024/01/03 00:39:56;;;;;;;4.75;1.40;;;9.80;99.90;;;;;;4979142;28;20210;-70
2024/01/03 00:42:23;;;;;;;5.78;1.42;;;9.80;99.90;;;;;;4967464;28;20213;-71
2024/01/03 00:44:50;;;;;;;5.50;1.10;;;9.80;99.90;;;;;;4972214;28;21181;-70
2024/01/03 00:47:18;;;;;;;2.83;0.85;;;9.50;99.90;;;;;;4979201;28;20207;-69
2024/01/03 00:49:45;;;;;;;4.95;1.20;;;9.80;99.90;;;;;;4980466;28;20286;-70
2024/01/03 00:52:13;;;;;;;3.05;1.55;;;9.40;99.90;;;;;;4947802;28;20699;-70
2024/01/03 00:54:41;;;;;;;2.78;1.10;;;9.80;99.90;;;;;;4978938;28;20227;-70
2024/01/03 00:57:09;;;;;;;3.08;0.85;;;9.80;99.90;;;;;;4969581;28;20203;-70
2024/01/03 00:59:37;;;;;;;3.30;0.90;;;9.80;99.90;;;;;;4973783;28;20203;-70
2024/01/03 01:02:05;;;;;;;6.57;1.33;;;9.70;99.90;;;;;;4972723;28;20681;-70
2024/01/03 01:04:33;;;;;;;3.95;1.17;;;9.70;99.90;;;;;;4970433;28;20703;-70
2024/01/03 01:07:00;;;;;;;1.75;0.77;;;9.60;99.90;;;;;;4947111;28;20795;-70
2024/01/03 01:09:27;;;;;;;2.15;0.90;;;9.50;99.90;;;;;;4984757;28;20206;-70
2024/01/03 01:11:55;;;;;;;10.40;1.33;;;9.60;99.90;;;;;;4978613;28;21262;-70
2024/01/03 01:14:22;;;;;;;3.05;0.95;;;9.50;99.90;;;;;;4971824;28;20242;-70
2024/01/03 01:16:49;;;;;;;4.10;0.57;;;9.50;99.90;;;;;;4978755;28;20289;-70
2024/01/03 01:19:16;;;;;;;1.00;0.50;;;9.50;99.90;;;;;;4975680;28;20297;-70
2024/01/03 01:21:43;;;;;;;2.45;0.63;;;9.40;99.90;;;;;;4972965;28;21190;-70
2024/01/03 01:24:10;;;;;;;2.53;0.95;;;9.50;99.90;;;;;;4941658;28;20220;-70
2024/01/03 01:26:37;;;;;;;5.13;0.77;;;9.90;99.90;;;;;;4979612;28;20202;-70
2024/01/03 01:29:05;;;;;;;4.32;0.93;;;9.40;99.90;;;;;;4967341;28;20209;-70
2024/01/03 01:31:32;;;;;;;2.95;0.63;;;9.30;99.90;;;;;;4979902;28;20310;-69
2024/01/03 01:33:59;;;;;;;1.27;0.45;;;9.40;99.90;;;;;;4976176;28;20715;-70
2024/01/03 01:36:26;;;;;;;2.13;0.60;;;9.30;99.90;;;;;;4971282;28;20298;-70
2024/01/03 01:38:53;;;;;;;3.33;0.75;;;9.30;99.90;;;;;;4940444;28;20215;-70
2024/01/03 01:41:20;;;;;;;2.10;0.65;;;9.30;99.90;;;;;;4982275;28;20207;-69
2024/01/03 01:43:47;;;;;;;0.57;0.40;;;9.30;99.90;;;;;;4967977;28;20318;-70
2024/01/03 01:46:15;;;;;;;1.35;0.43;;;9.30;99.90;;;;;;4986391;28;20206;-70
2024/01/03 01:48:43;;;;;;;1.15;0.68;;;9.30;99.90;;;;;;4979911;28;20652;-70
2024/01/03 01:51:13;;;;;;;2.17;0.50;;;9.30;99.90;;;;;;4972400;28;20776;-70
2024/01/03 01:53:39;;;;;;;2.47;0.80;;;8.50;99.90;;;;;;4944125;28;20568;-70
2024/01/03 01:56:08;;;;;;;5.00;0.90;;;9.00;99.90;;;;;;4974104;28;20222;-70
2024/01/03 01:58:35;;;;;;;1.83;0.77;;;9.30;99.90;;;;;;4968314;28;20209;-70
2024/01/03 02:01:02;;;;;;;2.92;0.50;;;9.10;99.90;;;;;;4979812;28;20230;-70
2024/01/03 02:03:31;;;;;;;1.45;0.82;;;9.80;99.90;;;;;;4982852;28;20201;-69
2024/01/03 02:05:58;;;;;;;1.15;0.47;;;9.20;99.90;;;;;;4971135;28;20217;-69
2024/01/03 02:08:25;;;;;;;3.13;0.50;;;9.20;99.90;;;;;;4982458;28;20232;-69
2024/01/03 02:10:52;;;;;;;0.47;0.30;;;9.20;99.90;;;;;;4946468;28;21134;-70
2024/01/03 02:13:19;;;;;;;1.15;0.70;;;9.10;99.90;;;;;;4981925;28;20213;-69
2024/01/03 02:15:46;;;;;;;1.75;0.80;;;;;;;;;;4959761;28;20595;-70
2024/01/03 02:18:14;;;;;;;3.60;0.75;;;9.10;99.90;;;;;;4980905;28;20860;-70
2024/01/03 02:20:44;;;;;;;1.80;0.88;;;9.10;99.90;;;;;;4972764;28;20498;-69
2024/01/03 02:23:12;;;;;;;1.15;0.57;;;9.10;99.90;;;;;;4969713;28;20689;-69
2024/01/03 02:25:40;;;;;;;0.75;0.40;;;9.00;99.90;;;;;;4938208;28;20207;-70
2024/01/03 02:28:09;;;;;;;1.27;0.60;;;9.30;99.90;;;;;;4978435;28;20234;-70
2024/01/03 02:30:37;;;;;;;1.63;0.45;;;9.00;99.90;;;;;;4972198;28;20577;-70
2024/01/03 02:33:04;;;;;;;3.25;0.85;;;9.00;99.90;;;;;;4981716;28;20203;-70
2024/01/03 02:35:31;;;;;;;1.73;0.88;;;8.90;99.90;;;;;;4970036;28;21109;-69
2024/01/03 02:37:58;;;;;;;1.40;0.43;;;8.90;99.90;;;;;;4972693;28;20207;-70
2024/01/03 02:40:26;;;;;;;4.50;0.73;;;9.10;99.90;;;;;;4932219;28;20245;-70
2024/01/03 02:42:53;;;;;;;1.70;0.80;;;8.90;99.90;;;;;;4973610;28;20214;-69
2024/01/03 02:45:20;;;;;;;2.35;0.90;;;;;;;;;;4967745;28;20203;-69
2024/01/03 02:47:47;;;;;;;3.73;0.80;;;8.90;99.90;;;;;;4979669;28;20287;-69
2024/01/03 02:50:14;;;;;;;3.72;0.70;;;9.20;99.90;;;;;;4978651;28;20828;-70
2024/01/03 02:52:40;;;;;;;0.85;0.63;;;8.90;99.90;;;;;;4966953;28;20787;-69
2024/01/03 02:55:08;;;;;;;1.03;0.47;;;8.90;99.90;;;;;;4970553;28;20814;-69
2024/01/03 02:57:36;;;;;;;1.90;0.75;;;8.80;99.90;;;;;;4947771;28;21149;-70
2024/01/03 03:00:03;;;;;;;1.75;0.60;;;8.80;99.90;;;;;;4970303;28;20222;-70
2024/01/03 03:02:30;;;;;;;4.68;1.13;;;8.80;99.90;;;;;;4978125;28;20195;-70
2024/01/03 03:04:57;;;;;;;2.53;0.60;;;8.80;99.90;;;;;;4983886;28;20315;-70
2024/01/03 03:07:24;;;;;;;1.85;0.63;;;8.40;99.90;;;;;;4972887;28;20199;-70
2024/01/03 03:09:51;;;;;;;2.15;0.80;;;8.80;99.90;;;;;;4963534;28;20210;-71
2024/01/03 03:12:18;;;;;;;4.97;1.27;;;8.80;99.90;;;;;;4950286;28;20222;-70
2024/01/03 03:14:46;;;;;;;4.53;1.10;;;8.80;99.90;;;;;;4969566;28;20236;-70
2024/01/03 03:17:13;;;;;;;2.42;0.95;;;8.80;99.90;;;;;;4984974;28;20207;-69
2024/01/03 03:19:40;;;;;;;4.88;0.95;;;8.80;99.90;;;;;;4979105;28;20199;-70
2024/01/03 03:22:07;;;;;;;3.30;0.77;;;;;;;;;;4969907;28;20326;-70
2024/01/03 03:24:34;;;;;;;5.38;1.23;;;8.80;99.90;;;;;;4980519;28;20203;-70
2024/01/03 03:27:01;;;;;;;1.98;0.75;;;8.80;99.90;;;;;;4975976;28;21178;-70
2024/01/03 03:29:28;;;;;;;3.70;0.70;;;8.80;99.90;;;;;;4948657;28;20210;-70
2024/01/03 03:31:57;;;;;;;0.75;0.60;;;8.80;99.90;;;;;;4968902;28;20202;-70
2024/01/03 03:34:23;;;;;;;2.65;0.60;;;8.80;99.90;;;;;;4987672;28;20896;-69
2024/01/03 03:36:51;;;;;;;4.38;0.90;;;9.00;99.90;;;;;;4985023;28;20878;-70
2024/01/03 03:39:18;;;;;;;2.00;0.80;;;8.80;99.90;;;;;;4975170;28;20881;-69
2024/01/03 03:41:44;;;;;;;1.42;0.68;;;8.90;99.90;;;;;;4977329;28;20204;-69
2024/01/03 03:44:11;;;;;;;2.55;0.70;;;8.90;99.90;;;;;;4944008;28;20353;-69
2024/01/03 03:46:38;;;;;;;2.67;0.82;;;8.80;99.90;;;;;;4974451;28;20207;-69
2024/01/03 03:49:06;;;;;;;4.50;0.70;;;8.80;99.90;;;;;;4978847;28;20203;-70
2024/01/03 03:51:33;;;;;;;1.15;0.60;;;8.80;99.90;;;;;;4984261;28;20202;-70
2024/01/03 03:54:00;;;;;;;3.65;0.85;;;8.80;99.90;;;;;;4981752;28;20254;-70
2024/01/03 03:56:29;;;;;;;0.30;0.30;;;8.90;99.90;;;;;;4976192;28;20233;-70
2024/01/03 03:58:56;;;;;;;1.67;0.70;;;8.80;99.90;;;;;;4942995;28;20207;-69
2024/01/03 04:01:23;;;;;;;2.73;0.60;;;8.80;99.90;;;;;;4980746;28;20207;-69
2024/01/03 04:03:49;;;;;;;3.47;1.00;;;8.80;99.90;;;;;;4971311;28;20314;-70
2024/01/03 04:06:18;;;;;;;1.90;0.55;;;8.90;99.90;;;;;;4976069;28;20285;-69
2024/01/03 04:08:45;;;;;;;1.58;0.43;;;8.90;99.90;;;;;;4974473;28;20211;-69
2024/01/03 04:11:13;;;;;;;1.45;0.70;;;9.20;99.90;;;;;;4982813;28;20584;-69
2024/01/03 04:13:40;;;;;;;0.63;0.55;;;8.90;99.90;;;;;;4940346;28;20222;-69
2024/01/03 04:16:09;;;;;;;0.90;0.50;;;8.80;99.90;;;;;;4983289;28;20222;-69
2024/01/03 04:18:36;;;;;;;0.55;0.52;;;8.90;99.90;;;;;;4975572;28;20207;-69
2024/01/03 04:21:05;;;;;;;1.48;0.55;;;8.90;99.90;;;;;;4980095;28;20203;-69
2024/01/03 04:23:34;;;;;;;1.63;0.73;;;8.90;99.90;;;;;;4976823;28;20199;-70
2024/01/03 04:26:01;;;;;;;1.13;0.40;;;8.90;99.90;;;;;;4978971;28;20206;-70
2024/01/03 04:28:28;;;;;;;1.65;0.50;;;8.90;99.90;;;;;;4942322;28;20221;-70
2024/01/03 04:30:55;;;;;;;0.20;0.20;;;8.90;99.90;;;;;;4973005;28;20199;-69
2024/01/03 04:33:22;;;;;;;1.17;0.50;;;9.00;99.90;;;;;;4977727;28;20209;-69
2024/01/03 04:35:49;;;;;;;1.55;0.55;;;9.00;99.90;;;;;;4975041;28;20240;-69
2024/01/03 04:38:15;;;;;;;1.35;0.50;;;9.00;99.90;;;;;;4978491;28;20215;-69
2024/01/03 04:40:44;;;;;;;3.80;0.73;;;9.00;99.90;;;;;;4962391;28;20218;-69
2024/01/03 04:43:11;;;;;;;1.67;0.50;;;9.20;99.90;;;;;;4970892;28;20199;-69
2024/01/03 04:45:37;;;;;;;1.67;0.80;;;9.20;99.90;;;;;;4942009;28;20210;-69
2024/01/03 04:48:05;;;;;;;0.38;0.38;;;9.20;99.90;;;;;;4976350;28;20298;-69
2024/01/03 04:50:32;;;;;;;0.57;0.40;;;9.20;99.90;;;;;;4968886;28;20205;-69
2024/01/03 04:52:59;;;;;;;0.65;0.38;;;9.10;99.90;;;;;;4977311;28;20194;-69
2024/01/03 04:55:26;;;;;;;0.50;0.50;;;9.10;99.90;;;;;;4971101;28;20226;-69
2024/01/03 04:57:55;;;;;;;1.17;0.52;;;9.10;99.90;;;;;;4980572;28;20199;-69
2024/01/03 05:00:22;;;;;;;0.33;0.33;;;9.10;99.90;;;;;;4939740;28;20665;-69
2024/01/03 05:02:48;;;;;;;0.97;0.40;;;9.30;99.90;;;;;;4953374;28;20202;-69
2024/01/03 05:05:15;;;;;;;0.60;0.40;;;9.10;99.90;;;;;;4977034;28;20206;-69
2024/01/03 05:07:42;;;;;;;4.15;0.75;;;9.10;99.90;;;;;;4974601;28;20203;-69
2024/01/03 05:10:09;;;;;;;0.38;0.32;;;9.10;99.90;;;;;;4982794;28;20298;-69
2024/01/03 05:12:37;;;;;;;2.50;0.52;;;9.20;99.90;;;;;;4974041;28;20285;-68
2024/01/03 05:15:06;;;;;;;0.68;0.52;;;9.10;99.90;;;;;;4971896;28;20203;-69
2024/01/03 05:17:32;;;;;;;1.02;0.40;;;9.40;99.90;;;;;;4939083;28;20232;-69
2024/01/03 05:19:59;;;;;;;2.17;0.38;;;9.10;99.90;;;;;;4975308;28;20212;-69
2024/01/03 05:22:26;;;;;;;0.50;0.30;;;9.00;99.90;;;;;;4962736;28;20198;-69
2024/01/03 05:24:54;;;;;;;0.35;0.32;;;9.20;99.90;;;;;;4966163;28;20206;-69
2024/01/03 05:27:22;;;;;;;0.77;0.47;;;9.10;99.90;;;;;;4970453;28;20207;-68
2024/01/03 05:29:49;;;;;;;0.40;0.40;;;9.10;99.90;;;;;;4979393;28;20676;-69
2024/01/03 05:32:18;;;;;;;0.20;0.20;;;9.10;99.90;;;;;;4941531;28;20584;-69
2024/01/03 05:34:45;;;;;;;2.40;0.40;;;9.00;99.90;;;;;;4966567;28;22812;-69
2024/01/03 05:37:12;;;;;;;0.47;0.30;;;9.10;99.90;;;;;;4972100;28;20321;-69
2024/01/03 05:39:39;;;;;;;0.20;0.20;;;9.80;99.90;;;;;;4959718;28;21644;-69
2024/01/03 05:42:07;;;;;;;0.10;0.10;;;8.90;99.90;;;;;;4967686;28;20294;-69
2024/01/03 05:44:34;;;;;;;0.30;0.30;;;;;;;;;;4977041;28;20237;-69
2024/01/03 05:47:02;;;;;;;0.20;0.20;;;8.90;99.90;;;;;;4936441;28;20223;-69
2024/01/03 05:49:31;;;;;;;0.40;0.40;;;8.80;99.90;;;;;;4978228;28;20281;-69
2024/01/03 05:51:59;;;;;;;0.40;0.30;;;8.80;99.90;;;;;;4959697;28;20779;-69
2024/01/03 05:54:27;;;;;;;1.23;0.30;;;8.70;99.90;;;;;;4965930;28;20309;-69
2024/01/03 05:56:54;;;;;;;0.32;0.28;;;9.00;99.90;;;;;;4953542;28;20234;-69
2024/01/03 05:59:21;;;;;;;0.38;0.38;;;8.60;99.90;;;;;;4961791;28;20361;-69
2024/01/03 06:01:48;;;;;;;0.22;0.22;;;8.40;99.90;;;;;;4933886;28;20210;-69
2024/01/03 06:04:15;;;;;;;0.20;0.20;;;8.70;99.90;;;;;;4966032;28;20222;-69
2024/01/03 06:06:43;;;;;;;0.20;0.20;;;8.70;99.90;;;;;;4961837;28;20228;-69
2024/01/03 06:09:10;;;;;;;0.17;0.17;;;8.70;99.90;;;;;;4956817;28;20231;-69
2024/01/03 06:11:37;;;;;;;0.20;0.20;;;8.70;99.90;;;;;;4966867;28;20233;-69
2024/01/03 06:14:04;;;;;;;0.47;0.32;;;8.70;99.90;;;;;;4959432;28;20214;-69
2024/01/03 06:16:31;;;;;;;0.40;0.25;;;8.60;99.90;;;;;;4951828;28;20230;-69
2024/01/03 06:18:57;;;;;;;0.30;0.25;;;9.10;99.90;;;;;;4936876;28;20227;-69
2024/01/03 06:21:24;;;;;;;0.35;0.35;;;9.40;99.90;;;;;;4977064;28;20317;-69
2024/01/03 06:23:52;;;;;;;0.63;0.27;;;8.70;99.90;;;;;;4959784;28;20205;-69
2024/01/03 06:26:19;;;;;;;0.20;0.20;;;8.60;99.90;;;;;;4958160;28;20269;-69
2024/01/03 06:28:46;;;;;;;1.60;0.17;;;8.70;99.90;;;;;;4970805;28;20284;-69
2024/01/03 06:31:13;;;;;;;0.43;0.28;;;8.80;99.90;;;;;;4979923;28;20199;-69
2024/01/03 06:33:40;;;;;;;0.40;0.40;;;8.70;99.90;;;;;;4944539;28;20229;-69
2024/01/03 06:36:07;;;;;;;0.30;0.30;;;8.70;99.90;;;;;;4974180;28;20330;-68
2024/01/03 06:38:34;;;;;;;1.40;0.63;;;8.80;99.90;;;;;;4956506;28;20209;-69
2024/01/03 06:41:02;;;;;;;0.93;0.52;;;8.70;99.90;;;;;;4961997;28;20206;-69
2024/01/03 06:43:29;;;;;;;4.97;0.70;;;9.10;99.90;;;;;;4973824;28;20268;-69
2024/01/03 06:45:56;;;;;;;5.22;0.85;;;8.20;99.90;;;;;;4973088;28;20221;-69
2024/01/03 06:48:23;;;;;;;2.47;0.80;;;8.80;99.90;;;;;;4937870;28;20219;-69
2024/01/03 06:50:50;;;;;;;2.47;0.75;;;8.70;99.90;;;;;;4984569;28;20209;-69
2024/01/03 06:53:17;;;;;;;2.15;0.82;;;8.80;99.90;;;;;;4980344;28;20345;-69
2024/01/03 06:55:43;;;;;;;5.60;1.33;;;8.80;99.90;;;;;;4970396;28;20238;-69
2024/01/03 06:58:12;;;;;;;6.57;1.20;;;8.90;99.90;;;;;;4959426;28;20290;-68
2024/01/03 07:00:39;;;;;;;8.50;1.85;;;8.90;99.90;;;;;;4981067;28;20309;-69
2024/01/03 07:03:06;;;;;;;7.93;1.95;;;8.90;99.90;;;;;;4979276;28;20312;-69
2024/01/03 07:05:33;;;;;;;9.57;1.50;;;8.90;99.90;;;;;;4949675;28;20265;-69
2024/01/03 07:08:00;;;;;;;4.63;1.23;;;8.90;99.90;;;;;;4974979;28;20571;-69
2024/01/03 07:10:31;;;;;;;6.45;1.48;;;9.00;99.90;;;;;;4965149;28;20710;-69
2024/01/03 07:12:58;;;;;;;6.13;0.90;;;9.10;99.90;;;;;;4968547;28;20405;-69
2024/01/03 07:15:27;;;;;;;7.63;1.15;;;9.10;99.90;;;;;;4966647;28;20723;-69
2024/01/03 07:17:55;;;;;;;4.68;1.15;;;9.10;99.90;;;;;;4978616;28;20230;-69
2024/01/03 07:20:22;;;;;;;6.38;1.13;;;9.20;99.90;;;;;;4939354;28;20267;-69
2024/01/03 07:22:49;;;;;;;4.40;1.10;;;9.20;99.90;;;;;;4982911;28;20590;-69
2024/01/03 07:25:17;;;;;;;6.80;1.20;;;9.20;99.90;;;;;;4964952;28;20246;-69
2024/01/03 07:27:44;;;;;;;5.95;1.55;;;9.20;99.90;;;;;;4959509;28;20207;-69
2024/01/03 07:30:12;;;;;;;5.68;1.42;;;9.20;99.90;;;;;;4968713;28;20811;-69
2024/01/03 07:32:40;;;;;;;9.23;2.00;;;9.20;99.90;;;;;;4974779;28;20516;-69
2024/01/03 07:35:07;;;;;;;6.50;1.70;;;9.20;99.90;;;;;;4932721;28;20234;-69
2024/01/03 07:37:34;;;;;;;5.60;1.25;;;9.30;99.90;;;;;;4961773;28;20426;-70
2024/01/03 07:40:01;;;;;;;6.65;1.45;;;9.30;99.90;;;;;;4977030;28;20202;-69
2024/01/03 07:42:28;;;;;;;8.63;1.55;;;9.30;99.90;;;;;;4944842;28;20312;-69
2024/01/03 07:44:55;;;;;;;4.88;1.50;;;9.20;99.90;;;;;;4969807;28;20203;-69
2024/01/03 07:47:22;;;;;;;10.70;1.73;;;9.20;99.90;;;;;;4968303;28;20202;-69
2024/01/03 07:49:50;;;;;;;7.03;1.90;;;9.20;99.90;;;;;;4943959;28;20295;-69
2024/01/03 07:52:17;;;;;;;4.97;0.90;;;9.30;99.90;;;;;;4968149;28;20694;-68
2024/01/03 07:54:44;;;;;;;4.72;1.17;;;9.30;99.90;;;;;;4982201;28;20290;-69
2024/01/03 07:57:11;;;;;;;5.80;1.00;;;9.30;99.90;;;;;;4963873;28;20222;-69
2024/01/03 07:59:40;;;;;;;5.35;1.42;;;9.30;99.90;;;;;;4959116;28;20195;-69
2024/01/03 08:02:08;;;;;;;5.32;1.63;;;9.30;99.90;;;;;;4968748;28;20210;-69
2024/01/03 08:04:35;;;;;;;3.17;0.95;;;9.30;99.90;;;;;;4941067;28;21362;-69
2024/01/03 08:07:03;;;;;;;3.80;1.23;;;9.30;99.90;;;;;;4979476;28;20191;-69
2024/01/03 08:09:30;;;;;;;5.32;1.20;;;9.30;99.90;;;;;;4976864;28;20660;-69
2024/01/03 08:11:57;;;;;;;5.50;0.88;;;9.30;99.90;;;;;;4973907;28;20222;-69
2024/01/03 08:14:24;;;;;;;5.13;1.15;;;9.40;99.90;;;;;;4953880;28;20274;-68
2024/01/03 08:16:51;;;;;;;8.60;1.73;;;9.50;99.90;;;;;;4973063;28;20336;-68
2024/01/03 08:19:18;;;;;;;9.98;1.95;;;9.40;99.90;;;;;;4948886;28;20317;-68
2024/01/03 08:21:45;;;;;;;7.40;1.50;;;9.40;99.90;;;;;;4970689;28;20590;-69
2024/01/03 08:24:13;;;;;;;7.55;1.42;;;8.40;99.90;;;;;;4971389;28;20561;-69
2024/01/03 08:26:40;;;;;;;7.40;1.52;;;9.30;99.90;;;;;;4960942;28;20560;-69
2024/01/03 08:29:07;;;;;;;5.38;1.77;;;9.40;99.90;;;;;;4957277;28;20210;-68
2024/01/03 08:31:34;;;;;;;5.70;1.00;;;9.40;99.90;;;;;;4962078;28;20230;-68
2024/01/03 08:34:01;;;;;;;5.97;1.30;;;9.40;99.90;;;;;;4976448;28;20425;-68
2024/01/03 08:36:40;;;;;;;3.92;0.93;;;9.30;99.90;;;;;;4946174;28;20229;-68
2024/01/03 08:39:07;;;;;;;16.73;1.55;;;9.10;99.90;;;;;;4982819;28;20198;-69
2024/01/03 08:41:35;;;;;;;1.90;1.00;;;9.30;99.90;;;;;;4972018;28;20210;-69
2024/01/03 08:44:05;;;;;;;5.85;1.50;;;9.70;99.90;;;;;;4967909;28;20408;-68
2024/01/03 08:46:34;;;;;;;3.92;1.10;;;9.30;99.90;;;;;;4962855;28;20203;-68
2024/01/03 08:49:02;;;;;;;3.00;1.10;;;10.00;99.90;;;;;;4984780;28;20199;-68
2024/01/03 08:51:29;;;;;;;5.07;1.13;;;9.40;99.90;;;;;;4948097;28;20964;-68
2024/01/03 08:53:56;;;;;;;3.92;1.20;;;9.40;99.90;;;;;;4979081;28;21027;-69
2024/01/03 08:56:23;;;;;;;1.10;0.80;;;10.00;99.90;;;;;;4978473;28;20917;-69
2024/01/03 08:58:51;;;;;;;3.88;1.15;;;9.40;99.90;;;;;;4986216;28;20301;-68
2024/01/03 09:01:19;;;;;;;2.63;1.30;;;9.40;99.90;;;;;;4953203;28;20222;-68
2024/01/03 09:03:46;;;;;;;8.18;1.42;;;9.50;99.90;;;;;;4982768;28;20314;-68
2024/01/03 09:06:14;;;;;;;7.15;1.63;;;9.50;99.90;;;;;;4947428;28;20206;-68
2024/01/03 09:08:41;;;;;;;8.30;1.75;;;9.50;99.90;;;;;;4980039;28;20195;-68
2024/01/03 09:11:11;;;;;;;7.22;1.65;;;9.50;99.90;;;;;;4979843;28;20199;-68
2024/01/03 09:13:38;;;;;;;9.15;2.03;;;8.60;99.90;;;;;;4983820;28;20202;-69
2024/01/03 09:16:07;;;;;;;9.40;1.92;;;9.50;99.90;;;;;;4971426;28;20635;-68
2024/01/03 09:18:34;;;;;;;7.05;2.08;;;9.50;99.90;;;;;;4963800;28;20627;-69
2024/01/03 09:21:03;;;;;;;3.35;1.20;;;9.60;99.90;;;;;;4952494;28;20223;-69
2024/01/03 09:23:30;;;;;;;6.70;2.25;;;9.60;99.90;;;;;;4977658;28;20203;-68
2024/01/03 09:25:57;;;;;;;6.45;1.55;;;9.60;99.90;;;;;;4968463;28;20205;-68
2024/01/03 09:28:25;;;;;;;8.32;1.42;;;9.70;99.90;;;;;;4975931;28;20285;-68
2024/01/03 09:30:52;;;;;;;4.68;1.13;;;9.70;99.90;;;;;;4961508;28;20967;-68
2024/01/03 09:33:20;;;;;;;5.45;1.58;;;9.70;99.90;;;;;;4959314;28;20214;-69
2024/01/03 09:35:47;;;;;;;4.15;1.33;;;9.70;99.90;;;;;;4942631;28;20230;-68
2024/01/03 09:38:15;;;;;;;7.18;1.30;;;9.70;99.90;;;;;;4977476;28;20226;-69
2024/01/03 09:40:42;;;;;;;3.95;1.20;;;9.30;99.90;;;;;;4977894;28;20541;-68
2024/01/03 09:43:11;;;;;;;2.78;1.25;;;9.80;99.90;;;;;;4977403;28;20211;-68
2024/01/03 09:45:38;;;;;;;5.32;1.25;;;9.70;99.90;;;;;;4980845;28;20428;-69
2024/01/03 09:48:06;;;;;;;2.38;0.95;;;9.80;99.90;;;;;;4973659;28;20265;-68
2024/01/03 09:50:34;;;;;;;5.00;1.35;;;9.80;99.90;;;;;;4957803;28;20198;-68
2024/01/03 09:53:01;;;;;;;5.70;1.77;;;9.80;99.90;;;;;;4937841;28;20211;-68
2024/01/03 09:55:29;;;;;;;5.45;1.17;;;9.80;99.90;;;;;;4957209;28;20742;-68
2024/01/03 09:57:56;;;;;;;5.55;1.25;;;9.80;99.90;;;;;;4976299;28;20262;-68
2024/01/03 10:00:29;;;;;;;4.63;1.10;;;9.70;99.90;;;;;;4975128;28;20622;-68
2024/01/03 10:03:01;;;;;;;3.95;1.10;;;9.70;99.90;;;;;;4967001;28;20207;-68
2024/01/03 10:05:28;;;;;;;3.05;0.98;;;9.70;99.90;;;;;;4956015;28;20303;-69
2024/01/03 10:07:56;;;;;;;5.97;1.15;;;9.70;99.90;;;;;;4944959;28;20202;-69
2024/01/03 10:10:31;;;;;;;7.22;1.60;;;9.70;99.90;;;;;;4975771;28;20220;-69
2024/01/03 10:12:58;;;;;;;2.33;1.20;;;9.70;99.90;;;;;;4976153;28;20296;-68
2024/01/03 10:15:33;;;;;;;4.53;1.15;;;9.70;99.90;;;;;;4975087;28;20211;-69
2024/01/03 10:18:06;;;;;;;5.93;0.95;;;9.70;99.90;;;;;;4969824;28;20742;-67
2024/01/03 10:20:34;;;;;;;4.68;0.88;;;9.70;99.90;;;;;;4963376;28;20759;-68
2024/01/03 10:23:10;;;;;;;6.88;0.75;;;9.70;99.90;;;;;;4945912;28;20203;-68
2024/01/03 10:25:37;;;;;;;6.43;1.40;;;10.00;99.90;;;;;;4966731;28;23347;-68
2024/01/03 10:28:06;;;;;;;6.03;1.42;;;10.00;99.90;;;;;;4976524;28;21064;-68
2024/01/03 10:30:33;;;;;;;2.88;0.95;;;9.90;99.90;;;;;;4974497;28;20403;-68
2024/01/03 10:33:00;;;;;;;5.03;1.67;;;10.40;99.90;;;;;;4967012;28;20233;-68
2024/01/03 10:35:29;;;;;;;5.75;1.45;;;10.20;99.90;;;;;;4968839;28;20872;-69
2024/01/03 10:37:57;;;;;;;4.55;1.25;;;9.80;99.90;;;;;;4952451;28;20224;-69
2024/01/03 10:40:29;;;;;;;4.00;1.20;;;9.90;99.90;;;;;;4963842;28;20368;-68
2024/01/03 10:42:56;;;;;;;5.65;1.10;;;10.00;99.90;;;;;;4979616;28;20423;-68
2024/01/03 10:45:24;;;;;;;3.10;0.88;;;9.80;99.90;;;;;;4964599;28;20203;-68
2024/01/03 10:47:52;;;;;;;5.13;1.17;;;9.80;99.90;;;;;;4962336;28;20207;-69
2024/01/03 10:50:19;;;;;;;4.93;1.20;;;9.80;99.90;;;;;;4980921;28;20586;-69
2024/01/03 10:52:47;;;;;;;4.70;1.50;;;9.80;99.90;;;;;;4972269;28;20211;-69
2024/01/03 10:55:19;;;;;;;3.50;0.98;;;9.80;99.90;;;;;;4940548;28;20571;-69
2024/01/03 10:57:57;;;;;;;4.75;0.90;;;9.80;99.90;;;;;;4979200;28;20659;-69
2024/01/03 11:00:39;;;;;;;3.17;1.05;;;9.80;99.90;;;;;;4965162;28;20214;-68
2024/01/03 11:03:19;;;;;;;6.18;1.33;;;9.80;99.90;;;;;;4948308;28;20208;-68
2024/01/03 11:06:02;;;;;;;2.63;1.20;;;9.80;99.90;;;;;;4972781;28;20210;-69
2024/01/03 11:08:34;;;;;;;5.38;0.80;;;9.50;99.90;;;;;;4981293;28;20829;-68
2024/01/03 11:11:01;;;;;;;2.88;1.02;;;9.70;99.90;;;;;;4950159;28;20703;-69
2024/01/03 11:13:31;;;;;;;5.07;1.52;;;9.80;99.90;;;;;;4968894;28;20206;-69
2024/01/03 11:15:59;;;;;;;3.20;0.80;;;9.80;99.90;;;;;;4962240;28;20662;-69
2024/01/03 11:18:52;;;;;;;3.38;1.45;;;9.70;99.90;;;;;;4957387;28;20826;-69
2024/01/03 11:21:39;;;;;;;3.80;1.08;;;10.00;99.90;;;;;;4976719;28;20215;-69
2024/01/03 11:24:59;;;;;;;3.10;0.98;;;9.70;99.90;;;;;;4927924;28;20611;-69
2024/01/03 11:27:26;;;;;;;4.07;1.00;;;9.70;99.90;;;;;;4973807;28;20692;-69
2024/01/03 11:29:57;;;;;;;4.47;1.10;;;9.60;99.90;;;;;;4966171;28;20211;-69
2024/01/03 11:32:29;;;;;;;4.47;0.90;;;9.60;99.90;;;;;;4965509;28;20211;-69
2024/01/03 11:34:56;;;;;;;3.95;1.00;;;9.60;99.90;;;;;;4962463;28;20652;-68
2024/01/03 11:37:38;;;;;;;4.47;1.20;;;9.60;99.90;;;;;;4962971;28;20805;-69
2024/01/03 11:40:08;;;;;;;3.28;0.90;;;9.70;99.90;;;;;;4929417;28;21240;-68
2024/01/03 11:42:37;;;;;;;3.42;1.20;;;9.70;99.90;;;;;;4971991;28;20207;-67
2024/01/03 11:45:07;;;;;;;4.70;1.35;;;9.80;99.90;;;;;;4968388;28;20211;-69
2024/01/03 11:47:35;;;;;;;2.47;1.00;;;9.80;99.90;;;;;;4968522;28;20222;-68
2024/01/03 11:50:04;;;;;;;6.38;1.23;;;9.80;99.90;;;;;;4961266;28;20748;-69
2024/01/03 11:52:34;;;;;;;2.35;0.88;;;9.80;99.90;;;;;;4975179;28;20191;-69
2024/01/03 11:55:07;;;;;;;3.28;1.13;;;9.80;99.90;;;;;;4951415;28;20347;-68
2024/01/03 11:57:37;;;;;;;6.45;1.40;;;9.90;99.90;;;;;;4892889;28;20250;-68
2024/01/03 12:00:08;;;;;;;8.35;1.60;;;9.90;99.90;;;;;;4958322;28;20272;-68
2024/01/03 12:02:35;;;;;;;1.67;1.00;;;10.00;99.90;;;;;;4948222;28;20207;-68
2024/01/03 12:05:03;;;;;;;3.95;1.10;;;10.10;99.90;;;;;;4953403;28;20202;-69
2024/01/03 12:07:32;;;;;;;3.25;1.00;;;10.00;99.90;;;;;;4950966;28;20472;-68
2024/01/03 12:10:00;;;;;;;3.05;1.02;;;10.00;99.90;;;;;;4959927;28;20222;-69
2024/01/03 12:12:27;;;;;;;4.72;1.60;;;10.10;99.90;;;;;;4925920;28;20741;-68
2024/01/03 12:14:55;;;;;;;4.22;1.00;;;10.10;99.90;;;;;;4974531;28;20684;-68
2024/01/03 12:17:27;;;;;;;2.40;1.08;;;10.10;99.90;;;;;;4972447;28;20302;-68
2024/01/03 12:19:57;;;;;;;3.72;1.17;;;10.10;99.90;;;;;;4964721;28;20297;-68
2024/01/03 12:22:24;;;;;;;2.85;0.95;;;10.10;99.90;;;;;;4962712;28;20736;-68
2024/01/03 12:24:52;;;;;;;3.35;0.80;;;10.10;99.90;;;;;;4961435;28;20226;-68
2024/01/03 12:27:23;;;;;;;2.15;0.75;;;10.10;99.90;;;;;;4915077;28;20756;-68
2024/01/03 12:29:51;;;;;;;5.65;1.58;;;10.00;99.90;;;;;;4964662;28;20742;-68
2024/01/03 12:32:18;;;;;;;6.05;0.93;;;10.00;99.90;;;;;;4977128;28;20225;-68
2024/01/03 12:34:48;;;;;;;2.90;0.60;;;10.00;99.90;;;;;;4967728;28;20307;-68
2024/01/03 12:37:15;;;;;;;3.97;0.98;;;10.10;99.90;;;;;;4966194;28;20238;-68
2024/01/03 12:39:42;;;;;;;2.88;1.02;;;10.10;99.90;;;;;;4978034;28;20245;-68
2024/01/03 12:42:10;;;;;;;6.40;1.23;;;10.10;99.90;;;;;;4939172;28;20778;-68
2024/01/03 12:44:38;;;;;;;1.55;0.60;;;10.10;99.90;;;;;;4967068;28;20317;-68
2024/01/03 12:47:06;;;;;;;2.65;0.90;;;10.10;99.90;;;;;;4960506;28;20199;-68
2024/01/03 12:49:34;;;;;;;2.95;1.10;;;10.10;99.90;;;;;;4968711;28;20206;-68
2024/01/03 12:52:03;;;;;;;4.70;1.65;;;10.10;99.90;;;;;;4947334;28;20227;-68
2024/01/03 12:54:29;;;;;;;8.50;1.25;;;10.10;99.90;;;;;;4973142;28;20226;-68
2024/01/03 12:56:57;;;;;;;9.35;1.20;;;10.10;99.90;;;;;;4969020;28;20203;-68
2024/01/03 12:59:24;;;;;;;4.53;0.95;;;10.10;99.90;;;;;;4935010;28;20691;-68
2024/01/03 13:01:51;;;;;;;5.25;1.13;;;10.00;99.90;;;;;;4984578;28;20214;-68
2024/01/03 13:04:17;;;;;;;4.55;1.25;;;10.00;99.90;;;;;;4966158;28;20820;-68